Terminal Aerodrome Forecast
Issued by NWS Memphis, TN

Home | Current Version | Previous Version | Text Only | Print | Product List | Glossary On
Versions: 1 2 3 4 5 6 7 8 9 10 11 12 13 14 15 16 17 18
000
FTUS44 KMEG 260900 AAA
TAFMKL
TAF AMD
KMKL 260901Z 2609/2706 00000KT 5SM BR SKC
      TEMPO 2609/2612 2SM BR
     FM261400 22007KT P6SM SCT250=

USA.gov is the U.S. government's official web portal to all federal, state and local government web resources and services.